Time;durP1;ratioP1;P1;durP2;ratioP2;P2;SDS_P1;SDS_P2;PMS_P1;PMS_P2;Temp;Humidity;BMP_temperature;BMP_pressure;BME280_temperature;BME280_humidity;BME280_pressure;Samples;Min_cycle;Max_cycle;Signal;HPM_P1;HPM_P2
2024/01/22 00:02:02;;;;;;;5.13;3.37;;;4.70;99.90;;;;;;5022431;28;20185;-35
2024/01/22 00:04:28;;;;;;;4.20;2.85;;;4.70;99.90;;;;;;5052048;28;20460;-35
2024/01/22 00:06:54;;;;;;;3.50;2.67;;;4.70;99.90;;;;;;5057607;28;20300;-34
2024/01/22 00:09:20;;;;;;;7.20;2.63;;;4.70;99.90;;;;;;5057092;28;20753;-33
2024/01/22 00:11:46;;;;;;;3.33;3.03;;;4.70;99.90;;;;;;5021593;28;20450;-33
2024/01/22 00:14:12;;;;;;;3.05;2.75;;;4.80;99.90;;;;;;5057657;28;20183;-36
2024/01/22 00:16:43;;;;;;;4.68;3.30;;;4.80;99.90;;;;;;5053343;28;20651;-34
2024/01/22 00:19:09;;;;;;;3.60;3.05;;;4.80;99.90;;;;;;5055565;28;20676;-35
2024/01/22 00:21:41;;;;;;;7.93;3.90;;;4.80;99.90;;;;;;5037107;28;20204;-34
2024/01/22 00:24:09;;;;;;;3.72;2.63;;;4.80;99.90;;;;;;5056815;28;20476;-37
2024/01/22 00:26:35;;;;;;;3.45;2.95;;;4.80;99.90;;;;;;5044036;28;20257;-33
2024/01/22 00:29:01;;;;;;;3.27;2.77;;;4.80;99.90;;;;;;5055245;28;20188;-33
2024/01/22 00:31:27;;;;;;;3.17;2.73;;;4.80;99.90;;;;;;5056040;28;20434;-36
2024/01/22 00:33:55;;;;;;;4.70;3.08;;;4.90;99.90;;;;;;5040521;28;21165;-35
2024/01/22 00:36:22;;;;;;;2.93;2.60;;;4.90;99.90;;;;;;5056425;28;20253;-32
2024/01/22 00:38:49;;;;;;;5.30;3.13;;;4.90;99.90;;;;;;5046194;28;20445;-32
2024/01/22 00:41:15;;;;;;;4.18;3.30;;;4.90;99.90;;;;;;5055973;28;20816;-38
2024/01/22 00:43:41;;;;;;;5.60;3.07;;;4.90;99.90;;;;;;5055818;28;20262;-34
2024/01/22 00:46:07;;;;;;;3.13;2.80;;;4.90;99.90;;;;;;5048389;28;21184;-36
2024/01/22 00:48:37;;;;;;;2.35;2.15;;;4.90;99.90;;;;;;5056531;28;20180;-33
2024/01/22 00:51:04;;;;;;;3.28;2.67;;;4.90;99.90;;;;;;5056005;28;21021;-30
2024/01/22 00:53:35;;;;;;;5.05;3.30;;;4.90;99.90;;;;;;5055692;28;20217;-33
2024/01/22 00:56:06;;;;;;;3.10;2.80;;;4.90;99.90;;;;;;5046492;28;20187;-30
2024/01/22 00:58:32;;;;;;;3.03;2.83;;;4.90;99.90;;;;;;5055585;28;20207;-30
2024/01/22 01:00:58;;;;;;;3.97;3.00;;;5.00;99.90;;;;;;5047805;28;20214;-33
2024/01/22 01:03:26;;;;;;;3.38;2.45;;;5.00;99.90;;;;;;5038269;28;20285;-33
2024/01/22 01:05:53;;;;;;;5.43;2.70;;;5.00;99.90;;;;;;5054018;28;20216;-34
2024/01/22 01:08:19;;;;;;;5.97;3.00;;;5.00;99.90;;;;;;5055115;28;20281;-32
2024/01/22 01:10:45;;;;;;;8.38;3.63;;;5.00;99.90;;;;;;5057804;28;21011;-31
2024/01/22 01:13:17;;;;;;;3.45;2.60;;;5.00;99.90;;;;;;5055763;28;20172;-32
2024/01/22 01:15:43;;;;;;;3.22;2.50;;;5.00;99.90;;;;;;5056446;28;20230;-36
2024/01/22 01:18:09;;;;;;;2.70;2.40;;;5.00;99.90;;;;;;5057608;28;20262;-30
2024/01/22 01:20:37;;;;;;;3.92;3.00;;;5.00;99.90;;;;;;5053194;28;20207;-31
2024/01/22 01:23:03;;;;;;;4.93;2.95;;;5.00;99.90;;;;;;5035621;28;20208;-36
2024/01/22 01:25:29;;;;;;;3.95;3.55;;;5.10;99.90;;;;;;5058641;28;20212;-35
2024/01/22 01:27:57;;;;;;;2.63;2.42;;;5.10;99.90;;;;;;5058419;28;20191;-30
2024/01/22 01:30:23;;;;;;;5.40;2.83;;;5.10;99.90;;;;;;5051722;28;20203;-31
2024/01/22 01:32:53;;;;;;;3.50;2.80;;;5.10;99.90;;;;;;5048133;28;20932;-33
2024/01/22 01:35:19;;;;;;;3.55;2.60;;;5.10;99.90;;;;;;5057362;28;20306;-33
2024/01/22 01:37:46;;;;;;;3.85;2.60;;;5.10;99.90;;;;;;5052456;28;20195;-30
2024/01/22 01:40:15;;;;;;;3.20;2.53;;;5.10;99.90;;;;;;5055957;28;20314;-36
2024/01/22 01:42:45;;;;;;;3.17;2.70;;;5.10;99.90;;;;;;5056750;28;20192;-29
2024/01/22 01:45:16;;;;;;;2.83;2.63;;;5.10;99.90;;;;;;5041015;28;20218;-26
2024/01/22 01:47:47;;;;;;;3.63;3.08;;;5.10;99.90;;;;;;5055680;28;20184;-29
2024/01/22 01:50:17;;;;;;;3.10;2.80;;;5.10;99.90;;;;;;5050470;28;20690;-30
2024/01/22 01:52:49;;;;;;;2.85;2.65;;;5.20;99.90;;;;;;5058121;28;20199;-27
2024/01/22 01:55:16;;;;;;;2.95;2.20;;;5.20;99.90;;;;;;5054915;28;20187;-32
2024/01/22 01:57:43;;;;;;;2.85;2.65;;;5.20;99.90;;;;;;5042759;28;20596;-30
2024/01/22 02:00:12;;;;;;;3.63;3.05;;;5.20;99.90;;;;;;5057758;28;20215;-30
2024/01/22 02:02:39;;;;;;;3.65;2.30;;;5.20;99.90;;;;;;5054898;28;20199;-31
2024/01/22 02:05:07;;;;;;;2.45;2.25;;;5.20;99.90;;;;;;5058544;28;20285;-29
2024/01/22 02:07:33;;;;;;;4.40;2.78;;;5.20;99.90;;;;;;5054484;28;20242;-31
2024/01/22 02:09:59;;;;;;;2.30;2.10;;;5.30;99.90;;;;;;5053910;28;20206;-31
2024/01/22 02:12:28;;;;;;;2.90;2.50;;;5.30;99.90;;;;;;5006447;28;20214;-30
2024/01/22 02:14:54;;;;;;;3.95;2.65;;;5.30;99.90;;;;;;5028532;28;20238;-30
2024/01/22 02:17:20;;;;;;;2.70;2.50;;;5.30;99.90;;;;;;5054838;28;20214;-28
2024/01/22 02:19:49;;;;;;;3.08;2.20;;;5.30;99.90;;;;;;5056324;28;20446;-28
2024/01/22 02:22:15;;;;;;;3.00;2.35;;;5.30;99.90;;;;;;5036770;28;20168;-32
2024/01/22 02:24:42;;;;;;;2.90;2.50;;;5.30;99.90;;;;;;5054025;28;20231;-31
2024/01/22 02:27:08;;;;;;;2.83;2.50;;;5.30;99.90;;;;;;5055257;28;20294;-29
2024/01/22 02:29:34;;;;;;;4.40;2.23;;;5.40;99.90;;;;;;5051068;28;20298;-32
2024/01/22 02:32:02;;;;;;;2.67;2.25;;;5.30;99.90;;;;;;5051630;28;21070;-28
2024/01/22 02:34:28;;;;;;;3.35;2.50;;;5.40;99.90;;;;;;5055114;28;20191;-32
2024/01/22 02:36:55;;;;;;;3.40;2.37;;;5.40;99.90;;;;;;5046315;28;20213;-30
2024/01/22 02:39:21;;;;;;;2.47;2.30;;;5.40;99.90;;;;;;5057059;28;20532;-28
2024/01/22 02:41:47;;;;;;;3.08;2.30;;;5.40;99.90;;;;;;5054797;28;20710;-30
2024/01/22 02:44:16;;;;;;;3.10;2.70;;;5.40;99.90;;;;;;5037056;28;20216;-31
2024/01/22 02:46:42;;;;;;;3.03;2.20;;;5.40;99.90;;;;;;5055275;28;21655;-29
2024/01/22 02:49:11;;;;;;;2.97;2.00;;;5.40;99.90;;;;;;5034563;28;20180;-31
2024/01/22 02:51:37;;;;;;;2.22;2.08;;;5.40;99.90;;;;;;5050992;28;20442;-30
2024/01/22 02:54:04;;;;;;;4.07;2.35;;;5.40;99.90;;;;;;5037129;28;20184;-29
2024/01/22 02:56:33;;;;;;;4.60;2.20;;;5.40;99.90;;;;;;5042466;28;20207;-29
2024/01/22 02:59:00;;;;;;;2.85;2.38;;;5.50;99.90;;;;;;5050746;28;20796;-28
2024/01/22 03:01:31;;;;;;;2.53;2.22;;;5.50;99.90;;;;;;5054414;28;20183;-32
2024/01/22 03:04:02;;;;;;;2.47;2.28;;;5.50;99.90;;;;;;5055085;28;20199;-30
2024/01/22 03:06:29;;;;;;;5.82;2.50;;;5.50;99.90;;;;;;5047953;28;20219;-29
2024/01/22 03:08:55;;;;;;;2.47;2.28;;;5.50;99.90;;;;;;5052643;28;20206;-30
2024/01/22 03:11:23;;;;;;;3.60;2.50;;;5.50;99.90;;;;;;5055487;28;20198;-30
2024/01/22 03:13:50;;;;;;;2.90;2.47;;;5.50;99.90;;;;;;5053348;28;20195;-30
2024/01/22 03:16:15;;;;;;;2.53;2.33;;;5.50;99.90;;;;;;4992702;28;20795;-30
2024/01/22 03:18:43;;;;;;;2.93;2.50;;;5.60;99.90;;;;;;5051470;28;20195;-28
2024/01/22 03:21:09;;;;;;;4.25;2.97;;;5.60;99.90;;;;;;5055622;28;20871;-28
2024/01/22 03:23:35;;;;;;;2.77;2.57;;;5.60;99.90;;;;;;5054365;28;20203;-28
2024/01/22 03:26:08;;;;;;;2.50;2.30;;;5.60;99.90;;;;;;5038400;28;21328;-29
2024/01/22 03:28:34;;;;;;;3.20;2.50;;;5.60;99.90;;;;;;5052118;28;20187;-29
2024/01/22 03:31:00;;;;;;;2.75;2.35;;;5.60;99.90;;;;;;5035354;28;20772;-28
2024/01/22 03:33:26;;;;;;;3.47;2.40;;;5.60;99.90;;;;;;5053840;22;20244;-70
2024/01/22 03:35:53;;;;;;;3.43;2.43;;;5.60;99.90;;;;;;5036590;28;20452;-70
2024/01/22 03:38:26;;;;;;;2.22;2.03;;;5.60;99.90;;;;;;5059048;28;20481;-70
2024/01/22 03:40:52;;;;;;;3.10;2.80;;;5.70;99.90;;;;;;5032294;28;20203;-70
2024/01/22 03:43:18;;;;;;;2.97;2.70;;;5.70;99.90;;;;;;5036612;28;20195;-70
2024/01/22 03:45:44;;;;;;;2.90;2.57;;;5.70;99.90;;;;;;5023497;28;20481;-70
2024/01/22 03:48:10;;;;;;;3.00;2.58;;;5.70;99.90;;;;;;5022632;28;20434;-70
2024/01/22 03:50:36;;;;;;;2.95;2.33;;;5.70;99.90;;;;;;5041323;28;20188;-69
2024/01/22 03:53:05;;;;;;;2.50;2.30;;;5.70;99.90;;;;;;5047730;28;20176;-69
2024/01/22 03:55:35;;;;;;;3.33;2.30;;;5.70;99.90;;;;;;5047202;28;20212;-70
2024/01/22 03:58:04;;;;;;;6.10;2.45;;;5.70;99.90;;;;;;5051067;28;20171;-70
2024/01/22 04:00:30;;;;;;;5.20;2.63;;;5.70;99.90;;;;;;5039154;28;20245;-70
2024/01/22 04:02:58;;;;;;;2.63;2.43;;;5.70;99.90;;;;;;5041141;28;20199;-70
2024/01/22 04:05:26;;;;;;;2.50;2.30;;;5.70;99.90;;;;;;5059263;28;20488;-71
2024/01/22 04:08:04;;;;;;;4.40;2.58;;;5.70;99.90;;;;;;5025606;28;20238;-70
2024/01/22 04:10:30;;;;;;;2.60;2.30;;;5.70;99.90;;;;;;5037736;28;20190;-70
2024/01/22 04:12:56;;;;;;;2.28;2.08;;;5.70;99.90;;;;;;5033942;28;20271;-70
2024/01/22 04:15:24;;;;;;;2.72;2.45;;;5.70;99.90;;;;;;5040046;28;20622;-70
2024/01/22 04:17:54;;;;;;;2.47;2.28;;;5.70;99.90;;;;;;5031586;28;20319;-70
2024/01/22 04:20:22;;;;;;;3.20;2.60;;;5.80;99.90;;;;;;5022155;28;20212;-70
2024/01/22 04:22:50;;;;;;;2.55;2.22;;;5.80;99.90;;;;;;5006135;28;20500;-70
2024/01/22 04:25:18;;;;;;;3.60;2.53;;;5.80;99.90;;;;;;5037212;28;20243;-70
2024/01/22 04:27:44;;;;;;;2.50;2.30;;;5.80;99.90;;;;;;5038761;28;20215;-70
2024/01/22 04:30:15;;;;;;;3.17;2.88;;;5.80;99.90;;;;;;5058524;28;20206;-69
2024/01/22 04:32:45;;;;;;;5.27;2.40;;;5.80;99.90;;;;;;5056794;28;20281;-70
2024/01/22 04:35:13;;;;;;;4.13;2.88;;;5.80;99.90;;;;;;5034449;28;20457;-70
2024/01/22 04:37:39;;;;;;;2.63;2.42;;;5.80;99.90;;;;;;5024683;28;20528;-70
2024/01/22 04:40:13;;;;;;;3.70;2.20;;;5.80;99.90;;;;;;5038991;28;20192;-70
2024/01/22 04:42:41;;;;;;;2.63;2.42;;;5.80;99.90;;;;;;5040741;28;20206;-70
2024/01/22 04:45:12;;;;;;;2.60;2.35;;;5.80;99.90;;;;;;5021373;28;20227;-70
2024/01/22 04:47:41;;;;;;;4.70;2.10;;;5.80;99.90;;;;;;5036314;28;20284;-71
2024/01/22 04:50:07;;;;;;;4.93;3.15;;;5.80;99.90;;;;;;5040116;28;20186;-71
2024/01/22 04:52:33;;;;;;;2.80;2.60;;;5.80;99.90;;;;;;5038792;28;20255;-70
2024/01/22 04:55:02;;;;;;;2.78;2.50;;;5.90;99.90;;;;;;5024815;28;20207;-69
2024/01/22 04:57:27;;;;;;;2.97;2.42;;;5.90;99.90;;;;;;5052080;28;20241;-71
2024/01/22 04:59:57;;;;;;;2.92;2.60;;;5.90;99.90;;;;;;5057470;28;20488;-70
2024/01/22 05:02:29;;;;;;;2.50;2.30;;;5.90;99.90;;;;;;5038205;28;20274;-71
2024/01/22 05:04:56;;;;;;;3.20;2.42;;;5.90;99.90;;;;;;5040611;28;20450;-70
2024/01/22 05:07:24;;;;;;;2.72;2.45;;;5.90;99.90;;;;;;5051563;28;20244;-70
2024/01/22 05:09:58;;;;;;;2.88;2.50;;;5.90;99.90;;;;;;5054332;28;20184;-69
2024/01/22 05:12:27;;;;;;;3.35;2.35;;;5.90;99.90;;;;;;5022784;28;20184;-70
2024/01/22 05:14:58;;;;;;;2.38;2.10;;;5.90;99.90;;;;;;5047336;28;20307;-71
2024/01/22 05:17:24;;;;;;;2.65;2.45;;;5.90;99.90;;;;;;5036761;28;20187;-71
2024/01/22 05:19:50;;;;;;;3.67;2.13;;;5.90;99.90;;;;;;5057584;28;20215;-70
2024/01/22 05:22:19;;;;;;;2.90;2.40;;;6.00;99.90;;;;;;5041218;28;20207;-70
2024/01/22 05:24:47;;;;;;;1.80;1.70;;;6.00;99.90;;;;;;5038049;28;20227;-70
2024/01/22 05:27:14;;;;;;;2.50;2.30;;;6.00;99.90;;;;;;5054771;28;20694;-73
2024/01/22 05:29:40;;;;;;;3.20;1.98;;;6.00;99.90;;;;;;5057409;28;20226;-70
2024/01/22 05:32:06;;;;;;;3.50;1.98;;;6.00;99.90;;;;;;5038209;28;20278;-71
2024/01/22 05:34:37;;;;;;;2.42;2.22;;;6.00;99.90;;;;;;5020628;28;20301;-71
2024/01/22 05:37:05;;;;;;;2.20;1.95;;;6.00;99.90;;;;;;5049656;28;20196;-70
2024/01/22 05:39:33;;;;;;;4.13;1.95;;;6.00;99.90;;;;;;5036379;28;20667;-70
2024/01/22 05:42:00;;;;;;;2.22;2.13;;;6.00;99.90;;;;;;5037654;28;20204;-70
2024/01/22 05:44:25;;;;;;;2.38;2.17;;;6.00;99.90;;;;;;5031408;28;20216;-71
2024/01/22 05:46:52;;;;;;;2.00;1.77;;;6.10;99.90;;;;;;5039580;28;20528;-70
2024/01/22 05:49:21;;;;;;;3.00;2.38;;;6.00;99.90;;;;;;5056967;28;20489;-70
2024/01/22 05:51:47;;;;;;;2.20;2.00;;;6.10;99.90;;;;;;5031804;28;20183;-70
2024/01/22 05:54:16;;;;;;;3.53;2.07;;;6.10;99.90;;;;;;5035606;28;20454;-70
2024/01/22 05:56:42;;;;;;;5.00;1.97;;;6.10;99.90;;;;;;5032121;28;20445;-71
2024/01/22 05:59:11;;;;;;;2.13;1.93;;;6.10;99.90;;;;;;5056984;28;20936;-71
2024/01/22 06:01:37;;;;;;;1.90;1.80;;;6.10;99.90;;;;;;5037715;28;20422;-70
2024/01/22 06:04:06;;;;;;;3.03;2.60;;;6.10;99.90;;;;;;5057723;28;20702;-72
2024/01/22 06:06:32;;;;;;;3.30;2.20;;;6.20;99.90;;;;;;5050480;28;20990;-69
2024/01/22 06:08:58;;;;;;;1.90;1.80;;;6.20;99.90;;;;;;5057519;28;20210;-70
2024/01/22 06:11:30;;;;;;;2.50;2.28;;;6.20;99.90;;;;;;5057014;28;20607;-70
2024/01/22 06:13:56;;;;;;;1.90;1.80;;;6.20;99.90;;;;;;5053702;28;20200;-70
2024/01/22 06:16:22;;;;;;;2.90;1.88;;;6.20;99.90;;;;;;5055434;28;20214;-71
2024/01/22 06:18:48;;;;;;;2.70;2.00;;;6.30;99.90;;;;;;5037436;28;20838;-71
2024/01/22 06:21:17;;;;;;;2.15;1.73;;;6.30;99.90;;;;;;5030310;28;20198;-71
2024/01/22 06:23:44;;;;;;;1.95;1.65;;;6.30;99.90;;;;;;5042965;28;20946;-71
2024/01/22 06:26:12;;;;;;;2.22;2.03;;;6.30;99.90;;;;;;5054370;28;20323;-71
2024/01/22 06:28:39;;;;;;;2.53;2.03;;;6.30;99.90;;;;;;5054769;28;20742;-70
2024/01/22 06:31:05;;;;;;;2.20;2.00;;;6.30;99.90;;;;;;5047744;28;20465;-71
2024/01/22 06:33:36;;;;;;;1.60;1.50;;;6.40;99.90;;;;;;5031336;28;20480;-72
2024/01/22 06:36:02;;;;;;;2.95;1.70;;;6.40;99.90;;;;;;5033594;28;20442;-71
2024/01/22 06:38:28;;;;;;;2.30;2.10;;;6.40;99.90;;;;;;5030190;28;20199;-72
2024/01/22 06:40:54;;;;;;;1.63;1.53;;;6.40;99.90;;;;;;5034619;28;20332;-72
2024/01/22 06:43:20;;;;;;;1.80;1.70;;;6.40;99.90;;;;;;5015608;28;20903;-74
2024/01/22 06:45:46;;;;;;;2.10;1.60;;;6.50;99.90;;;;;;5034770;28;20874;-72
2024/01/22 06:48:12;;;;;;;1.67;1.57;;;6.50;99.90;;;;;;5035790;28;20421;-72
2024/01/22 06:50:41;;;;;;;1.70;1.60;;;6.50;99.90;;;;;;5020148;28;20461;-71
2024/01/22 06:53:07;;;;;;;2.88;1.60;;;6.60;99.90;;;;;;5032361;28;21177;-75
2024/01/22 06:55:33;;;;;;;1.60;1.50;;;6.60;99.90;;;;;;5035728;28;20193;-73
2024/01/22 06:57:59;;;;;;;1.77;1.60;;;6.60;99.90;;;;;;5019360;28;20494;-75
2024/01/22 07:00:30;;;;;;;1.63;1.50;;;6.70;99.90;;;;;;5053929;28;20447;-75
2024/01/22 07:02:58;;;;;;;1.60;1.50;;;6.70;99.90;;;;;;5015452;28;21281;-73
2024/01/22 07:05:26;;;;;;;1.40;1.30;;;6.70;99.90;;;;;;5034640;28;20509;-73
2024/01/22 07:07:58;;;;;;;1.73;1.50;;;6.80;99.90;;;;;;5020053;28;20446;-76
2024/01/22 07:10:27;;;;;;;1.40;1.30;;;6.80;99.90;;;;;;5030265;28;20432;-74
2024/01/22 07:12:56;;;;;;;1.30;1.20;;;6.80;99.90;;;;;;5036596;28;20441;-75
2024/01/22 07:15:22;;;;;;;1.57;1.47;;;6.80;99.90;;;;;;5052727;28;20449;-76
2024/01/22 07:17:51;;;;;;;1.53;1.43;;;6.90;99.90;;;;;;5056424;28;20493;-73
2024/01/22 07:20:19;;;;;;;2.03;1.70;;;6.90;99.90;;;;;;5052214;28;20453;-74
2024/01/22 07:22:45;;;;;;;1.47;1.37;;;6.90;99.90;;;;;;5055059;28;20418;-73
2024/01/22 07:25:14;;;;;;;1.20;1.10;;;7.00;99.90;;;;;;5053004;28;20564;-75
2024/01/22 07:27:45;;;;;;;1.60;1.50;;;7.00;99.90;;;;;;5054129;28;20445;-75
2024/01/22 07:30:12;;;;;;;1.50;1.40;;;7.00;99.90;;;;;;5019896;28;20507;-74
2024/01/22 07:32:42;;;;;;;1.53;1.43;;;7.10;99.90;;;;;;5036553;28;20446;-73
2024/01/22 07:35:13;;;;;;;1.47;1.37;;;7.10;99.90;;;;;;5003379;28;20458;-75
2024/01/22 07:37:44;;;;;;;1.60;1.50;;;7.10;99.90;;;;;;5032482;28;20505;-76
2024/01/22 07:40:13;;;;;;;2.80;1.50;;;7.10;99.90;;;;;;5037466;28;20414;-76
2024/01/22 07:42:41;;;;;;;1.50;1.40;;;7.20;99.90;;;;;;5047750;28;20450;-75
2024/01/22 07:45:11;;;;;;;1.53;1.43;;;7.20;99.90;;;;;;5016875;28;20443;-75
2024/01/22 07:47:38;;;;;;;1.93;1.37;;;7.20;99.90;;;;;;5025070;28;20419;-75
2024/01/22 07:50:10;;;;;;;2.00;1.80;;;7.30;99.90;;;;;;5022680;28;20443;-77
2024/01/22 07:52:39;;;;;;;1.80;1.70;;;7.30;99.90;;;;;;5033237;28;20510;-75
2024/01/22 07:55:06;;;;;;;1.50;1.40;;;7.30;99.90;;;;;;5057058;28;20873;-76
2024/01/22 07:57:32;;;;;;;2.80;1.80;;;7.30;99.90;;;;;;5053563;28;21003;-75
2024/01/22 07:59:58;;;;;;;1.70;1.60;;;7.40;99.90;;;;;;5038584;28;20509;-73
2024/01/22 08:02:27;;;;;;;1.83;1.37;;;7.40;99.90;;;;;;5021585;28;21225;-76
2024/01/22 08:05:00;;;;;;;1.70;1.60;;;7.40;99.90;;;;;;5019395;28;20462;-74
2024/01/22 08:07:29;;;;;;;1.93;1.57;;;7.40;99.90;;;;;;5037446;28;20433;-75
2024/01/22 08:09:56;;;;;;;1.30;1.20;;;7.40;99.90;;;;;;5040140;28;20910;-75
2024/01/22 08:12:22;;;;;;;1.93;1.83;;;7.40;99.90;;;;;;5023764;28;20458;-74
2024/01/22 08:14:48;;;;;;;1.77;1.67;;;7.50;99.90;;;;;;5021233;28;20484;-74
2024/01/22 08:17:18;;;;;;;1.33;1.23;;;7.50;99.90;;;;;;5042334;28;20506;-73
2024/01/22 08:19:44;;;;;;;2.90;1.90;;;7.50;99.90;;;;;;5038801;28;20454;-74
2024/01/22 08:22:10;;;;;;;1.77;1.60;;;7.50;99.90;;;;;;5040580;28;20749;-77
2024/01/22 08:24:37;;;;;;;1.67;1.47;;;7.50;99.90;;;;;;5040087;28;20521;-75
2024/01/22 08:27:05;;;;;;;1.60;1.50;;;7.60;99.90;;;;;;5057379;28;20581;-74
2024/01/22 08:29:31;;;;;;;1.50;1.40;;;7.60;99.90;;;;;;5058656;28;20486;-74
2024/01/22 08:31:57;;;;;;;1.60;1.50;;;7.60;99.90;;;;;;5035973;28;20457;-74
2024/01/22 08:34:24;;;;;;;1.50;1.40;;;7.60;99.90;;;;;;5077303;28;20685;-75
2024/01/22 08:36:52;;;;;;;2.30;1.50;;;7.60;99.90;;;;;;5045123;28;20422;-74
2024/01/22 08:39:20;;;;;;;1.63;1.53;;;7.60;99.90;;;;;;5033806;28;20477;-75
2024/01/22 08:41:46;;;;;;;1.47;1.37;;;7.60;99.90;;;;;;5038880;28;20831;-74
2024/01/22 08:44:15;;;;;;;1.83;1.60;;;7.60;99.90;;;;;;5040325;28;20450;-75
2024/01/22 08:46:41;;;;;;;1.83;1.40;;;7.60;99.90;;;;;;5052086;28;20469;-74
2024/01/22 08:49:09;;;;;;;1.70;1.60;;;7.60;99.90;;;;;;5049989;28;20434;-75
2024/01/22 08:51:35;;;;;;;1.60;1.50;;;7.60;99.90;;;;;;5050036;28;20434;-75
2024/01/22 08:54:02;;;;;;;3.53;1.70;;;7.60;99.90;;;;;;5039938;28;20438;-73
2024/01/22 08:56:28;;;;;;;1.67;1.57;;;7.70;99.90;;;;;;5022983;28;20507;-76
2024/01/22 08:58:54;;;;;;;1.40;1.30;;;7.60;99.90;;;;;;5015772;28;21102;-73
2024/01/22 09:01:20;;;;;;;1.50;1.40;;;7.60;99.90;;;;;;5037300;28;20430;-72
2024/01/22 09:03:47;;;;;;;3.00;1.70;;;7.60;99.90;;;;;;5034804;28;20972;-73
2024/01/22 09:06:13;;;;;;;1.40;1.30;;;7.70;99.90;;;;;;5054375;28;20512;-72
2024/01/22 09:08:43;;;;;;;1.50;1.40;;;7.70;99.90;;;;;;5034667;28;20425;-73
2024/01/22 09:11:14;;;;;;;2.80;1.60;;;7.70;99.90;;;;;;5032567;28;20962;-72
2024/01/22 09:13:44;;;;;;;1.70;1.60;;;7.70;99.90;;;;;;5046974;28;20430;-72
2024/01/22 09:16:14;;;;;;;1.50;1.40;;;7.70;99.90;;;;;;5016507;28;20418;-74
2024/01/22 09:18:42;;;;;;;1.67;1.57;;;7.70;99.90;;;;;;5050872;28;20422;-72
2024/01/22 09:21:12;;;;;;;1.97;1.50;;;7.70;99.90;;;;;;5019598;28;20457;-72
2024/01/22 09:23:38;;;;;;;1.50;1.40;;;7.70;99.90;;;;;;5055490;28;21101;-74
2024/01/22 09:26:04;;;;;;;1.53;1.43;;;7.70;99.90;;;;;;5019256;28;20556;-74
2024/01/22 09:28:31;;;;;;;1.67;1.57;;;7.70;99.90;;;;;;5054389;28;20892;-73
2024/01/22 09:30:59;;;;;;;1.70;1.60;;;7.80;99.90;;;;;;5052271;28;21287;-74
2024/01/22 21:34:05;;;;;;;7.57;2.70;;;8.80;99.90;;;;;;4975865;28;21014;-30
2024/01/22 21:36:32;;;;;;;10.63;3.70;;;8.80;99.90;;;;;;4978266;28;20441;-31
2024/01/22 21:39:01;;;;;;;6.37;2.77;;;8.80;99.90;;;;;;4993322;28;20436;-32
2024/01/22 21:41:29;;;;;;;10.17;3.63;;;8.80;99.90;;;;;;4979920;28;21058;-32
2024/01/22 21:43:57;;;;;;;6.33;3.00;;;8.80;99.90;;;;;;4998471;28;20556;-31
2024/01/22 21:46:28;;;;;;;11.37;3.30;;;8.80;99.90;;;;;;4998895;28;20500;-34
2024/01/22 21:48:54;;;;;;;9.40;3.20;;;8.80;99.90;;;;;;4997096;28;20495;-29
2024/01/22 21:51:22;;;;;;;12.40;3.13;;;8.80;99.90;;;;;;4981550;28;20460;-34
2024/01/22 21:53:48;;;;;;;12.37;3.10;;;8.90;99.90;;;;;;4980116;28;20413;-31
2024/01/22 21:56:14;;;;;;;11.67;3.77;;;8.90;99.90;;;;;;4999807;28;20441;-28
2024/01/22 21:58:40;;;;;;;10.03;3.00;;;8.90;99.90;;;;;;5002927;28;20486;-30
2024/01/22 22:01:09;;;;;;;10.83;3.67;;;8.90;99.90;;;;;;5000041;28;20823;-29
2024/01/22 22:03:35;;;;;;;7.17;3.53;;;8.90;99.90;;;;;;4999767;28;20491;-32
2024/01/22 22:06:02;;;;;;;16.67;3.77;;;8.90;99.90;;;;;;5002473;28;20472;-37
2024/01/22 22:08:28;;;;;;;16.00;3.57;;;8.90;99.90;;;;;;4999729;28;20483;-28
2024/01/22 22:10:56;;;;;;;14.20;3.40;;;8.90;99.90;;;;;;4982305;28;20442;-28
2024/01/22 22:13:22;;;;;;;11.30;3.40;;;8.90;99.90;;;;;;4983917;28;20927;-29
2024/01/22 22:15:49;;;;;;;13.03;3.43;;;8.90;99.90;;;;;;4967610;28;20511;-31
2024/01/22 22:18:15;;;;;;;14.90;3.23;;;8.90;99.90;;;;;;5000071;28;20436;-27
2024/01/22 22:20:44;;;;;;;9.47;3.30;;;8.90;99.90;;;;;;5000132;28;20444;-29
2024/01/22 22:23:11;;;;;;;11.23;3.47;;;8.90;99.90;;;;;;4999652;28;20441;-30
2024/01/22 22:25:37;;;;;;;19.00;3.60;;;8.90;99.90;;;;;;5000205;28;20516;-28
2024/01/22 22:28:07;;;;;;;16.67;4.07;;;8.90;99.90;;;;;;4977067;28;20429;-32
2024/01/22 22:30:38;;;;;;;10.60;3.90;;;8.90;99.90;;;;;;5000396;28;20519;-32
2024/01/22 22:33:04;;;;;;;11.37;2.83;;;8.90;99.90;;;;;;5007261;28;21122;-29
2024/01/22 22:35:31;;;;;;;14.80;3.40;;;8.90;99.90;;;;;;5015487;28;20431;-29
2024/01/22 22:37:59;;;;;;;11.37;3.67;;;8.90;99.90;;;;;;5002788;28;20431;-35
2024/01/22 22:40:30;;;;;;;8.50;3.67;;;8.90;99.90;;;;;;5020998;28;20452;-31
2024/01/22 22:42:56;;;;;;;16.07;3.97;;;8.90;99.90;;;;;;5028592;28;20538;-27
2024/01/22 22:45:23;;;;;;;16.53;3.50;;;8.90;99.90;;;;;;5024007;28;20514;-28
2024/01/22 22:47:58;;;;;;;8.37;3.70;;;8.90;99.90;;;;;;5023226;28;20474;-29
2024/01/22 22:50:24;;;;;;;12.30;4.27;;;8.90;99.90;;;;;;5023995;28;20439;-32
2024/01/22 22:52:52;;;;;;;7.77;3.10;;;8.90;99.90;;;;;;5019788;28;20466;-30
2024/01/22 22:55:19;;;;;;;13.87;3.37;;;8.90;99.90;;;;;;5021389;28;20427;-35
2024/01/22 22:57:48;;;;;;;11.83;3.50;;;8.90;99.90;;;;;;5020004;28;20892;-29
2024/01/22 23:00:14;;;;;;;12.30;4.03;;;8.90;99.90;;;;;;5021968;28;20474;-35
2024/01/22 23:02:40;;;;;;;14.83;3.80;;;8.90;99.90;;;;;;5010474;28;20428;-29
2024/01/22 23:05:07;;;;;;;10.93;3.23;;;8.90;99.90;;;;;;5019419;28;20550;-30
2024/01/22 23:07:34;;;;;;;9.03;3.40;;;8.90;99.90;;;;;;5021295;28;20481;-31
2024/01/22 23:10:00;;;;;;;14.47;3.40;;;8.90;99.90;;;;;;5021598;28;20461;-31
2024/01/22 23:12:28;;;;;;;8.07;3.10;;;8.90;99.90;;;;;;5021636;28;20420;-30
2024/01/22 23:14:55;;;;;;;11.30;3.53;;;8.90;99.90;;;;;;5010339;28;20446;-34
2024/01/22 23:17:23;;;;;;;11.43;2.97;;;8.90;99.90;;;;;;5019174;28;20960;-31
2024/01/22 23:19:49;;;;;;;12.60;3.70;;;8.90;99.90;;;;;;5019896;28;20597;-32
2024/01/22 23:22:15;;;;;;;19.67;3.87;;;8.90;99.90;;;;;;5019676;28;21203;-28
2024/01/22 23:24:41;;;;;;;12.07;3.10;;;8.90;99.90;;;;;;5017279;28;20431;-31
2024/01/22 23:27:10;;;;;;;17.20;4.43;;;8.90;99.90;;;;;;5022010;28;20494;-31
2024/01/22 23:29:37;;;;;;;10.63;3.20;;;8.90;99.90;;;;;;5020272;28;20456;-30
2024/01/22 23:32:05;;;;;;;12.37;3.37;;;8.90;99.90;;;;;;5017037;28;20494;-30
2024/01/22 23:34:33;;;;;;;11.60;3.77;;;8.90;99.90;;;;;;5016824;28;20440;-29
2024/01/22 23:36:59;;;;;;;15.10;3.70;;;8.90;99.90;;;;;;5002671;28;20438;-30
2024/01/22 23:39:28;;;;;;;18.43;4.67;;;8.90;99.90;;;;;;5020735;28;20443;-31
2024/01/22 23:41:54;;;;;;;13.80;3.77;;;8.90;99.90;;;;;;5019991;28;21235;-31
2024/01/22 23:44:20;;;;;;;14.80;3.40;;;8.90;99.90;;;;;;5019730;28;20416;-33
2024/01/22 23:46:46;;;;;;;15.60;3.73;;;8.80;99.90;;;;;;5021119;28;20464;-31
2024/01/22 23:49:12;;;;;;;12.53;3.83;;;8.90;99.90;;;;;;5015062;28;21126;-31
2024/01/22 23:51:38;;;;;;;12.77;3.83;;;8.90;99.90;;;;;;5018821;28;20462;-29
2024/01/22 23:54:05;;;;;;;18.70;3.30;;;8.90;99.90;;;;;;5019429;28;20593;-33
2024/01/22 23:56:31;;;;;;;15.10;3.53;;;8.90;99.90;;;;;;5021290;28;20463;-29
2024/01/22 23:59:00;;;;;;;11.53;3.63;;;8.90;99.90;;;;;;5002278;28;21163;-31
